EST,Max TemperatureF,Mean TemperatureF,Min TemperatureF,Max Dew PointF,MeanDew PointF,Min DewpointF,Max Humidity, Mean Humidity, Min Humidity, Max Sea Level PressureIn, Mean Sea Level PressureIn, Min Sea Level PressureIn, Max VisibilityMiles, Mean VisibilityMiles, Min VisibilityMiles, Max Wind SpeedMPH, Mean Wind SpeedMPH, Max Gust SpeedMPH,PrecipitationIn, CloudCover, Events, WindDirDegrees
2012-11-1,46,44,42,40,38,35,92,80,71,29.62,29.52,29.45,10,10,7,15,10,22,0.04,8,Rain,239
2012-11-2,42,38,35,36,32,28,93,77,65,29.86,29.73,29.61,10,10,6,14,9,23,0.02,8,Rain,280
2012-11-3,41,38,36,32,30,28,82,75,65,30.07,29.97,29.86,10,10,7,16,10,28,0.00,8,Rain-Snow,292
2012-11-4,37,35,33,28,26,23,79,71,62,30.12,30.07,30.03,10,10,9,14,8,21,0.00,7,Snow,283
2012-11-5,36,34,33,29,25,19,85,70,56,30.22,30.13,30.04,10,10,10,10,6,,0.00,8,,318
2012-11-6,39,32,24,24,21,19,88,65,49,30.22,30.16,30.09,10,10,10,9,5,,0.00,3,,184
2012-11-7,37,28,19,27,22,17,92,73,46,30.13,30.09,30.05,10,10,9,7,2,,0.00,0,,357
2012-11-8,41,36,30,27,24,18,82,67,43,30.12,30.07,30.02,10,10,10,16,8,23,0.00,2,,312
2012-11-9,46,39,32,38,32,23,89,72,54,30.21,30.16,30.09,10,9,6,13,5,,0.00,6,,248
2012-11-10,50,46,42,41,39,38,89,78,63,30.31,30.27,30.21,10,7,4,16,4,,0.02,8,,168
2012-11-11,70,57,44,40,38,36,79,50,33,30.33,30.28,30.24,10,10,10,15,9,,0.00,3,Thunderstorm,191
2012-11-12,64,54,43,50,45,37,89,67,53,30.24,30.12,29.99,10,9,2,22,12,34,0.26,3,Rain,211
2012-11-13,42,38,35,37,28,22,83,69,59,30.53,30.38,30.19,10,10,8,16,8,22,0.04,8,Rain,287
2012-11-14,37,31,25,26,24,22,92,67,57,30.62,30.56,30.50,10,10,10,6,3,,0.00,5,,311
2012-11-15,44,34,24,31,26,22,100,86,43,30.49,30.41,30.35,10,6,0,7,2,,0.00,2,Fog,206
2012-11-16,45,36,26,31,28,24,93,81,56,30.54,30.44,30.35,10,8,1,8,2,,0.00,2,,263
2012-11-17,48,38,28,35,31,26,100,89,54,30.67,30.60,30.50,10,4,0,7,4,,0.00,3,Fog,219
2012-11-18,48,37,26,35,30,25,100,90,54,30.68,30.62,30.53,10,4,0,6,1,,0.00,4,Fog,206
2012-11-19,48,38,27,34,31,25,92,82,54,30.52,30.41,30.26,10,8,6,12,5,17,0.00,0,,200
2012-11-20,46,38,30,37,33,29,96,84,63,30.23,30.19,30.14,10,8,6,6,2,,0.00,0,,216
2012-11-21,52,40,28,37,32,26,100,86,49,30.27,30.22,30.16,10,5,0,7,2,,0.00,0,Fog,222
2012-11-22,60,48,35,32,30,26,89,60,27,30.25,30.16,30.01,10,10,9,8,6,,0.00,0,,205
2012-11-23,54,45,35,43,33,26,73,60,48,30.00,29.78,29.67,10,10,5,24,11,33,0.00,5,Snow,221
2012-11-24,35,32,30,25,22,16,80,65,50,29.91,29.81,29.74,10,7,1,21,14,31,0.01,7,Snow,276
2012-11-25,34,32,30,28,23,16,82,70,54,29.92,29.87,29.80,10,9,2,13,9,21,0.00,8,Snow,232
2012-11-26,37,35,33,25,24,22,70,62,53,30.25,30.10,29.89,10,10,10,15,8,24,0.00,7,,249
2012-11-27,39,36,32,23,20,16,64,56,39,30.30,30.27,30.23,10,10,10,8,5,,0.00,7,,277
2012-11-28,36,33,30,27,22,18,75,63,54,30.26,30.22,30.15,10,9,2,16,9,,0.00,7,Snow,233
2012-11-29,46,38,30,26,22,18,79,57,37,30.29,30.26,30.20,10,10,9,16,9,25,0.00,3,,228
2012-11-30,36,31,26,30,23,18,100,83,59,30.43,30.37,30.27,10,5,0,8,3,,0.03,8,Fog-Snow,22